• Join FlightAware (Why Join?)
  • Login
  • US Flag 
06:46PM EDT


 

Airport Tracker/Info


-or-


 

Live Flight TrackerFlight Track Log ✈ JIA2360 ✈ 16-Jul-2012 ✈ KCAK - KCLT

Flight Track Log - Related Links

Times and Time Zones

All times are in EDT time to prevent confusion due to time zone crossing. See the JIA2360 flight status page for this flight to view local times or setup timezone preferences in your user account.

Time Position Orientation Groundspeed Altitude Reporting Facility
EDT Latitude Longitude Course Direction KTS MPH feet Rate Location/Type
07:16AM 40.8161 -81.4967 179° South 242 278 4,100  Level Cleveland Center
07:17AM 40.7494 -81.4958 178° South 253 291 6,000 2,160 Climbing Cleveland Center
07:18AM 40.6658 -81.4919 176° South 281 323 8,500 2,280 Climbing Cleveland Center
07:19AM 40.5847 -81.4853 181° South 289 333 10,600 2,040 Climbing Cleveland Center
07:20AM 40.4972 -81.4869 178° South 307 353 12,600 1,860 Climbing Cleveland Center
07:21AM 40.4075 -81.4828 178° South 313 360 14,400 1,740 Climbing Cleveland Center
07:22AM 40.3097 -81.4789 178° South 318 366 16,100 1,440 Climbing Cleveland Center
07:23AM 40.2136 -81.4747 173° South 332 382 17,300 1,260 Climbing Cleveland Center
07:24AM 40.1181 -81.4600 176° South 342 394 18,700 1,380 Climbing Cleveland Center
07:25AM 40.0181 -81.4506 174° South 358 412 20,100 1,260 Climbing Cleveland Center
07:26AM 39.9006 -81.4353 173° South 369 425 21,500 1,080 Climbing Indianapolis Center
07:27AM 39.8108 -81.4219 174° South 369 425 22,500 960 Climbing Indianapolis Center
07:28AM 39.7083 -81.4089 173° South 369 425 23,500 960 Climbing Indianapolis Center
07:29AM 39.6039 -81.3931 175° South 374 430 24,500 900 Climbing Indianapolis Center
07:30AM 39.4972 -81.3803 186° South 380 437 25,300 720 Climbing Indianapolis Center
07:31AM 39.3892 -81.3942 195° South 386 444 26,000 660 Climbing Indianapolis Center
07:32AM 39.2814 -81.4325 196° South 391 450 26,700 660 Climbing Indianapolis Center
07:33AM 39.1736 -81.4731 196° South 396 456 27,400 600 Climbing Indianapolis Center
07:34AM 39.0639 -81.5136 196° South 403 464 28,000 600 Climbing Indianapolis Center
07:35AM 38.9519 -81.5544 198° South 408 470 28,600 480 Climbing Indianapolis Center
07:36AM 38.8400 -81.6000 195° South 418 481 29,000 180 Climbing Indianapolis Center
07:37AM 38.7094 -81.6436 197° South 418 481 29,000  Level Indianapolis Center
07:38AM 38.6036 -81.6861 194° South 438 504 29,000  Level Indianapolis Center
07:39AM 38.4958 -81.7208 196° South 427 491 29,000  Level Indianapolis Center
07:40AM 38.3881 -81.7606 191° South 415 478 29,000  Level Indianapolis Center
07:41AM 38.2800 -81.7872 189° South 410 472 29,000  Level Indianapolis Center
07:42AM 38.1717 -81.8081 188° South 405 466 29,000  Level Indianapolis Center
07:43AM 38.0636 -81.8267 189° South 405 466 29,000  Level Indianapolis Center
07:44AM 37.9553 -81.8475 188° South 405 466 29,000  Level Indianapolis Center
07:45AM 37.8492 -81.8658 189° South 399 459 29,000  Level Indianapolis Center
07:46AM 37.7472 -81.8864 189° South 387 445 29,000 -60 Level Indianapolis Center
07:47AM 37.6433 -81.9072 188° South 387 445 28,900 -300 Descending Indianapolis Center
07:48AM 37.5372 -81.9253 189° South 387 445 28,400 -480 Descending Indianapolis Center
07:49AM 37.4331 -81.9458 188° South 387 445 28,000 -240 Descending Indianapolis Center
07:50AM 37.3292 -81.9636 189° South 387 445 28,000  Level Indianapolis Center
07:53AM 37.0717 -82.0122 188° South 382 440 28,000  Level Atlanta Center
07:54AM 36.9697 -82.0306 188° South 382 440 28,000  Level Atlanta Center
07:55AM 36.8658 -82.0489 189° South 382 440 28,000  Level Atlanta Center
07:56AM 36.7639 -82.0694 188° South 377 434 28,000  Level Atlanta Center
07:57AM 36.6600 -82.0875 188° South 377 434 28,000  Level Atlanta Center
07:58AM 36.5478 -82.1083 188° South 377 434 28,000  Level Atlanta Center
07:59AM 36.4439 -82.1264 156° South 377 434 28,000  Level Atlanta Center
08:00AM 36.3469 -82.0719 152° Southeast 363 418 28,000 -360 Level Atlanta Center
08:01AM 36.2500 -82.0075 152° Southeast 372 428 27,300 -1,680 Descending Atlanta Center
08:02AM 36.1550 -81.9456 152° Southeast 378 435 24,700 -2,580 Descending Atlanta Center
08:03AM 36.0561 -81.8811 153° Southeast 390 449 22,200 -2,520 Descending Atlanta Center
08:04AM 35.9631 -81.8222 152° Southeast 395 455 19,700 -2,280 Descending Atlanta Center
08:05AM 35.8744 -81.7631 152° Southeast 383 441 17,700 -2,100 Descending Atlanta Center
08:06AM 35.7878 -81.7067 153° Southeast 366 421 15,500 -2,160 Descending Atlanta Center
08:07AM 35.7056 -81.6553 150° Southeast 342 394 13,400 -2,100 Descending Atlanta Center
08:07AM 35.6569 -81.6208 153° Southeast 328 377 12,200 -2,040 Descending Atlanta Center
08:08AM 35.6253 -81.6014 137° Southeast 330 380 11,400 -1,200 Descending Atlanta Center
08:08AM 35.5847 -81.5542 130° Southeast 309 356 11,000 -420 Descending Atlanta Center
08:09AM 35.5675 -81.5292 126° Southeast 311 358 11,000 -360 Level Atlanta Center
08:09AM 35.5372 -81.4789 132° Southeast 305 351 10,700 -720 Descending Atlanta Center
08:10AM 35.5136 -81.4464 104° East 307 353 10,300 -1,020 Descending Atlanta Center
08:10AM 35.5019 -81.3908 88° East 302 348 9,700 -1,020 Descending Atlanta Center
08:11AM 35.5031 -81.3475 87° East 289 333 9,300 -1,020 Descending Atlanta Center
08:11AM 35.5058 -81.2886 85° East 299 344 8,700 -1,020 Descending Atlanta Center
08:12AM 35.5092 -81.2450 85° East 294 338 8,300 -900 Descending Atlanta Center
08:12AM 35.5139 -81.1761 86° East 276 318 7,700 -840 Descending Atlanta Center
08:13AM 35.5153 -81.1531 83° East 288 331 7,500 -1,020 Descending Atlanta Center
08:13AM 35.5203 -81.0994 91° East 250 288 6,800 -1,140 Descending Atlanta Center
08:14AM 35.5197 -81.0686 137° Southeast 261 300 6,400 -1,380 Descending Atlanta Center
08:14AM 35.4917 -81.0367 137° Southeast 239 275 5,400 -1,500 Descending Atlanta Center
08:15AM 35.4744 -81.0169 152° Southeast 203 234 4,900 -1,320 Descending Atlanta Center
08:15AM 35.4342 -80.9903 163° South 240 276 4,100 -900 Descending Atlanta Center
08:16AM 35.4153 -80.9833 177° South 219 252 4,000 -540 Descending Atlanta Center
08:17AM 35.3631 -80.9794 176° South 211 243 3,400 -720 Descending FAA TRACON SMA TRACON (SMA)
08:17AM 35.3472 -80.9781 175° South 202 232 3,100 -900 Descending FAA TRACON SMA TRACON (SMA)
08:17AM 35.3317 -80.9764 176° South 173 199 2,800 -780 Descending FAA TRACON SMA TRACON (SMA)
08:18AM 35.3181 -80.9753 177° South 160 184 2,600 -660 Descending FAA TRACON SMA TRACON (SMA)
08:18AM 35.3053 -80.9744 176° South 154 177 2,400 -780 Descending FAA TRACON SMA TRACON (SMA)
08:18AM 35.2894 -80.9731 176° South 151 174 2,100 -900 Descending FAA TRACON SMA TRACON (SMA)
08:19AM 35.2769 -80.9719 176° South 149 171 1,800 -780 Descending FAA TRACON SMA TRACON (SMA)
08:19AM 35.2642 -80.9708 176° South 148 170 1,600 -780 Descending FAA TRACON SMA TRACON (SMA)
08:19AM 35.2483 -80.9694 176° South 148 170 1,300 -780 Descending FAA TRACON SMA TRACON (SMA)
08:20AM 35.2367 -80.9683 176° South 144 166 1,100 -480 Descending FAA TRACON SMA TRACON (SMA)
08:20AM 35.2308 -80.9678 360° North 142 163 1,000 -180 Descending FAA TRACON SMA TRACON (SMA)
08:20AM 35.2308 -80.9678 360° North 142 163 1,000  Level FAA TRACON SMA TRACON (SMA)
08:21AM 35.2308 -80.9678 360° North 142 163 1,000  Level FAA TRACON SMA TRACON (SMA)